Jena, Florida
Current Conditions -  °F | °C
As of 5:15 PM on Saturday 25 Oct 2014 (Local Time) from K40J Reporting Station
Clear Clear  
Wind Chill: 77°   Ceiling: Unl
Heat Index: 78°   Visibility: 10mi
Dew Point: 41°   Wind: 3mph
Humidity: 28%   Direction: 360°N
Pressure: 29.98"   Gusts: NA
Location:  29.6015°N, 83.3311°W
Report Text: K40J 252115Z AUTO 36003KT 10SM CLR 25/05 A2998 RMK AO2
Loading
Personal Weather Stations






























Interactive Weather Map
Tropical Storm Tracking
New forecast layout! Learn more

10-Day Weather Forecast

Advertisements
Track Severe Weather on mobile